< Typhoon 196607 1966 Season Typhoon 196609 >
Typhoon 196608 (ORA)
General InformationTrack Information on Google Maps || Disaster Info.ResourceGoogle EarthGE AnimationAtom FeedGeoJSON
Detalied Best Track (Time Zone = UTC)
Year Month Day Hour Lat. Long. Pressure (hPa) Wind (kt) Class Image Chart
1966 7 22 12 16.0 116.0 1002 0 2 -- Chart
1966 7 22 18 15.4 114.9 1000 0 2 -- Chart
1966 7 23 00 14.2 114.0 998 0 2 -- Chart
1966 7 23 06 14.5 114.8 998 0 2 -- Chart
1966 7 23 12 15.3 115.3 996 0 2 -- Chart
1966 7 23 18 14.9 114.6 995 0 9 -- Chart
1966 7 24 00 14.9 113.8 992 0 9 -- Chart
1966 7 24 06 15.8 113.8 988 0 9 -- Chart
1966 7 24 12 16.7 113.5 986 0 9 -- Chart
1966 7 24 18 17.4 112.8 984 0 9 -- Chart
1966 7 25 00 18.0 112.2 980 0 9 -- Chart
1966 7 25 06 18.5 111.7 980 0 9 -- Chart
1966 7 25 12 19.4 111.5 980 0 9 -- Chart
1966 7 25 18 20.5 111.5 980 0 9 -- Chart
1966 7 26 00 20.8 110.6 982 0 9 -- Chart
1966 7 26 06 21.5 110.1 982 0 9 -- Chart
1966 7 26 12 22.0 109.1 984 0 9 -- Chart
1966 7 26 18 22.5 108.1 988 0 2 -- Chart
1966 7 27 00 23.0 107.0 992 0 2 -- Chart
1966 7 27 06 23.5 106.0 992 0 2 -- Chart
1966 7 27 12 24.0 105.0 997 0 2 -- Chart
1966 7 27 18 24.0 104.0 998 0 2 -- Chart
1966 7 28 00 24.3 102.9 998 0 2 -- Chart
Japan Meteorological Agency Best Track Data | Correction Date : 1989-06-01
< Typhoon 196607 1966 Season Typhoon 196609 >

Help